createdAt,value
2023-05-15T00:00:32.484Z,93724.47
2023-05-15T00:01:29.186Z,93720.31
2023-05-15T00:02:25.767Z,93727.78
2023-05-15T00:03:22.504Z,93717.00
2023-05-15T00:04:19.163Z,93716.59
2023-05-15T00:05:16.188Z,93719.00
2023-05-15T00:06:12.788Z,93712.31
2023-05-15T00:07:09.296Z,93712.19
2023-05-15T00:08:06.273Z,93721.94
2023-05-15T00:09:02.797Z,93709.88
2023-05-15T00:09:59.443Z,93718.03
2023-05-15T00:11:01.513Z,93714.28
2023-05-15T00:11:58.648Z,93717.78
2023-05-15T00:12:55.350Z,93718.91
2023-05-15T00:13:52.305Z,93724.66
2023-05-15T00:14:48.803Z,93723.56
2023-05-15T00:15:45.339Z,93726.56
2023-05-15T00:16:42.080Z,93733.53
2023-05-15T00:17:38.674Z,93731.72
2023-05-15T00:18:35.544Z,93736.66
2023-05-15T00:19:32.048Z,93734.50
2023-05-15T00:20:28.578Z,93740.50
2023-05-15T00:21:25.046Z,93748.06
2023-05-15T00:22:21.536Z,93747.03
2023-05-15T00:23:18.078Z,93754.78
2023-05-15T00:24:14.757Z,93760.97
2023-05-15T00:25:11.451Z,93748.22
2023-05-15T00:26:08.013Z,93752.22
2023-05-15T00:27:04.589Z,93742.84
2023-05-15T00:28:01.049Z,93742.09
2023-05-15T00:28:57.809Z,93738.66
2023-05-15T00:29:54.359Z,93723.56
2023-05-15T00:30:51.930Z,93723.50
2023-05-15T00:31:48.422Z,93730.59
2023-05-15T00:32:44.912Z,93726.56
2023-05-15T00:33:41.487Z,93713.75
2023-05-15T00:34:37.972Z,93710.84
2023-05-15T00:35:34.499Z,93714.19
2023-05-15T00:36:31.024Z,93657.06
2023-05-15T00:37:27.504Z,93709.72
2023-05-15T00:38:23.954Z,93716.59
2023-05-15T00:39:20.508Z,93710.50
2023-05-15T00:40:20.625Z,93710.06
2023-05-15T00:41:18.126Z,93709.28
2023-05-15T00:42:15.458Z,93708.94
2023-05-15T00:43:12.377Z,93707.72
2023-05-15T00:44:09.911Z,93698.09
2023-05-15T00:45:08.689Z,93691.56
2023-05-15T00:46:06.636Z,93691.56
2023-05-15T00:47:04.026Z,93689.84
2023-05-15T00:48:01.425Z,93679.34
2023-05-15T00:48:58.239Z,93689.06
2023-05-15T00:49:55.697Z,93690.69
2023-05-15T00:50:52.375Z,93683.38
2023-05-15T00:51:49.185Z,93686.41
2023-05-15T00:52:46.035Z,93698.88
2023-05-15T00:53:42.825Z,93703.88
2023-05-15T00:54:39.442Z,93702.66
2023-05-15T00:55:36.589Z,93701.44
2023-05-15T00:56:33.881Z,93695.94
2023-05-15T00:57:31.265Z,93699.56
2023-05-15T00:58:29.415Z,93694.69
2023-05-15T00:59:30.144Z,93693.13
2023-05-15T01:00:27.319Z,93687.34
2023-05-15T01:01:25.758Z,93691.47
2023-05-15T01:02:22.514Z,93695.66
2023-05-15T01:03:19.176Z,93696.38
2023-05-15T01:04:15.713Z,93703.16
2023-05-15T01:05:12.214Z,93707.38
2023-05-15T01:06:08.706Z,93704.97
2023-05-15T01:07:05.202Z,93709.72
2023-05-15T01:08:07.900Z,93713.63
2023-05-15T01:09:05.794Z,93718.09
2023-05-15T01:10:04.376Z,93719.94
2023-05-15T01:11:02.889Z,93715.19
2023-05-15T01:12:00.765Z,93713.22
2023-05-15T01:12:57.479Z,93715.19
2023-05-15T01:13:53.999Z,93719.44
2023-05-15T01:14:50.711Z,93712.66
2023-05-15T01:15:47.310Z,93703.69
2023-05-15T01:16:43.799Z,93617.84
2023-05-15T01:17:40.744Z,93715.66
2023-05-15T01:18:37.389Z,93712.56
2023-05-15T01:19:34.385Z,93718.47
2023-05-15T01:20:34.327Z,93719.69
2023-05-15T01:21:37.540Z,93721.16
2023-05-15T01:22:41.132Z,93720.72
2023-05-15T01:23:56.472Z,93707.50
2023-05-15T01:25:11.352Z,93707.22
2023-05-15T01:26:17.811Z,93701.56
2023-05-15T01:27:14.339Z,93694.41
2023-05-15T01:28:12.368Z,93694.06
2023-05-15T01:29:13.006Z,93692.41
2023-05-15T01:30:15.986Z,93700.25
2023-05-15T01:31:16.649Z,93714.53
2023-05-15T01:32:18.486Z,93709.78
2023-05-15T01:33:18.928Z,93701.00
2023-05-15T01:34:18.930Z,93696.19
2023-05-15T01:35:25.005Z,93702.44
2023-05-15T01:36:27.163Z,93691.97
2023-05-15T01:37:25.062Z,93677.38
2023-05-15T01:38:21.500Z,93671.59
2023-05-15T01:39:20.331Z,93672.38
2023-05-15T01:40:18.721Z,93666.53
2023-05-15T01:41:21.316Z,93667.41
2023-05-15T01:42:19.509Z,93655.69
2023-05-15T01:43:18.752Z,93658.53
2023-05-15T01:44:17.345Z,93650.53
2023-05-15T01:45:14.196Z,93651.91
2023-05-15T01:46:13.520Z,93647.69
2023-05-15T01:47:15.029Z,93673.25
2023-05-15T01:48:13.735Z,93654.91
2023-05-15T01:49:12.298Z,93654.78
2023-05-15T01:50:10.204Z,93653.19
2023-05-15T01:51:07.871Z,93647.25
2023-05-15T01:52:10.810Z,93639.00
2023-05-15T01:53:09.273Z,93645.63
2023-05-15T01:54:06.978Z,93639.78
2023-05-15T01:55:04.413Z,93642.50
2023-05-15T01:56:02.486Z,93638.50
2023-05-15T01:56:59.022Z,93643.91
2023-05-15T01:57:56.609Z,93650.94
2023-05-15T01:58:53.800Z,93653.63
2023-05-15T01:59:50.942Z,93646.22
2023-05-15T02:00:48.058Z,93651.13
2023-05-15T02:01:45.250Z,93648.63
2023-05-15T02:02:42.330Z,93645.47
2023-05-15T02:03:40.360Z,93650.09
2023-05-15T02:04:38.089Z,93643.31
2023-05-15T02:05:35.019Z,93642.28
2023-05-15T02:06:32.037Z,93645.03
2023-05-15T02:07:29.075Z,93650.53
2023-05-15T02:08:28.887Z,93654.06
2023-05-15T02:09:26.209Z,93657.50
2023-05-15T02:10:23.086Z,93660.00
2023-05-15T02:11:19.969Z,93674.59
2023-05-15T02:12:17.034Z,93669.16
2023-05-15T02:13:13.750Z,93675.09
2023-05-15T02:14:11.180Z,93672.19
2023-05-15T02:15:09.198Z,93672.53
2023-05-15T02:16:06.028Z,93672.00
2023-05-15T02:17:02.595Z,93656.00
2023-05-15T02:17:59.109Z,93665.22
2023-05-15T02:18:55.683Z,93661.25
2023-05-15T02:19:52.240Z,93656.19
2023-05-15T02:20:48.824Z,93664.53
2023-05-15T02:21:45.290Z,93663.22
2023-05-15T02:22:41.772Z,93665.69
2023-05-15T02:23:39.249Z,93667.16
2023-05-15T02:24:35.750Z,93668.81
2023-05-15T02:25:38.576Z,93667.38
2023-05-15T02:26:56.971Z,93665.81
2023-05-15T02:28:00.367Z,93656.53
2023-05-15T02:29:02.795Z,93657.97
2023-05-15T02:30:02.353Z,93652.84
2023-05-15T02:31:01.369Z,93653.38
2023-05-15T02:31:57.889Z,93661.22
2023-05-15T02:32:58.793Z,93660.34
2023-05-15T02:34:15.520Z,93668.56
2023-05-15T02:35:33.230Z,93660.31
2023-05-15T02:36:32.417Z,93649.78
2023-05-15T02:37:31.194Z,93658.69
2023-05-15T02:38:33.255Z,93655.44
2023-05-15T02:39:30.173Z,93640.75
2023-05-15T02:40:28.622Z,93633.53
2023-05-15T02:41:25.532Z,93626.38
2023-05-15T02:42:22.735Z,93636.00
2023-05-15T02:43:20.052Z,93635.06
2023-05-15T02:44:17.752Z,93634.88
2023-05-15T02:45:14.910Z,93634.09
2023-05-15T02:46:12.474Z,93634.72
2023-05-15T02:47:11.308Z,93631.03
2023-05-15T02:48:09.124Z,93635.41
2023-05-15T02:49:05.980Z,93639.69
2023-05-15T02:50:02.936Z,93638.50
2023-05-15T02:50:59.408Z,93646.25
2023-05-15T02:51:55.888Z,93656.31
2023-05-15T02:53:01.245Z,93662.50
2023-05-15T02:53:59.819Z,93655.44
2023-05-15T02:54:56.318Z,93663.25
2023-05-15T02:55:52.884Z,93661.78
2023-05-15T02:56:49.328Z,93653.94
2023-05-15T02:57:45.948Z,93647.09
2023-05-15T02:58:42.598Z,93654.41
2023-05-15T02:59:39.194Z,93660.16
2023-05-15T03:00:35.800Z,93655.09
2023-05-15T03:01:32.502Z,93662.22
2023-05-15T03:02:29.001Z,93655.50
2023-05-15T03:03:25.519Z,93650.44
2023-05-15T03:04:22.139Z,93661.09
2023-05-15T03:05:18.714Z,93653.53
2023-05-15T03:06:15.282Z,93651.47
2023-05-15T03:07:11.824Z,93649.69
2023-05-15T03:08:08.321Z,93650.47
2023-05-15T03:09:04.864Z,93647.03
2023-05-15T03:10:01.338Z,93650.53
2023-05-15T03:10:58.405Z,93652.25
2023-05-15T03:11:54.889Z,93656.91
2023-05-15T03:12:51.452Z,93655.53
2023-05-15T03:13:48.033Z,93652.88
2023-05-15T03:14:44.514Z,93651.31
2023-05-15T03:15:40.983Z,93653.47
2023-05-15T03:16:39.007Z,93650.69
2023-05-15T03:17:35.684Z,93652.94
2023-05-15T03:18:32.218Z,93665.50
2023-05-15T03:19:28.696Z,93661.69
2023-05-15T03:20:25.303Z,93655.44
2023-05-15T03:21:21.900Z,93641.84
2023-05-15T03:22:18.610Z,93649.25
2023-05-15T03:23:15.113Z,93646.16
2023-05-15T03:24:11.901Z,93647.63
2023-05-15T03:25:11.604Z,93646.59
2023-05-15T03:26:08.121Z,93649.06
2023-05-15T03:27:05.236Z,93650.03
2023-05-15T03:28:01.713Z,93653.72
2023-05-15T03:28:58.288Z,93642.97
2023-05-15T03:29:54.770Z,93648.28
2023-05-15T03:30:51.254Z,93642.03
2023-05-15T03:31:47.764Z,93651.50
2023-05-15T03:32:44.284Z,93644.88
2023-05-15T03:33:40.894Z,93647.25
2023-05-15T03:34:38.369Z,93644.34
2023-05-15T03:35:36.236Z,93636.59
2023-05-15T03:36:32.722Z,93644.06
2023-05-15T03:37:29.218Z,93632.44
2023-05-15T03:38:25.837Z,93634.25
2023-05-15T03:39:22.261Z,93631.84
2023-05-15T03:40:18.761Z,93640.72
2023-05-15T03:41:15.307Z,93644.91
2023-05-15T03:42:11.792Z,93638.13
2023-05-15T03:43:08.215Z,93646.63
2023-05-15T03:44:04.777Z,93642.47
2023-05-15T03:45:01.346Z,93640.94
2023-05-15T03:45:59.056Z,93646.13
2023-05-15T03:46:55.598Z,93647.75
2023-05-15T03:47:52.135Z,93649.06
2023-05-15T03:48:48.693Z,93551.50
2023-05-15T03:49:46.176Z,93654.66
2023-05-15T03:50:44.450Z,93647.28
2023-05-15T03:51:40.946Z,93654.59
2023-05-15T03:52:38.524Z,93646.22
2023-05-15T03:53:36.620Z,93653.47
2023-05-15T03:54:33.370Z,93648.06
2023-05-15T03:55:29.893Z,93647.88
2023-05-15T03:56:26.468Z,93660.09
2023-05-15T03:57:22.971Z,93653.44
2023-05-15T03:58:19.405Z,93650.19
2023-05-15T03:59:15.840Z,93648.56
2023-05-15T04:00:12.806Z,93650.69
2023-05-15T04:01:09.350Z,93653.97
2023-05-15T04:02:05.931Z,93644.22
2023-05-15T04:03:02.831Z,93649.38
2023-05-15T04:03:59.495Z,93651.56
2023-05-15T04:04:56.026Z,93646.84
2023-05-15T04:05:52.528Z,93642.59
2023-05-15T04:06:49.951Z,93642.41
2023-05-15T04:07:46.461Z,93647.06
2023-05-15T04:08:42.952Z,93652.00
2023-05-15T04:09:39.447Z,93655.19
2023-05-15T04:10:35.937Z,93656.28
2023-05-15T04:11:34.794Z,93565.88
2023-05-15T04:12:32.593Z,93652.41
2023-05-15T04:13:29.223Z,93657.75
2023-05-15T04:14:25.764Z,93650.00
2023-05-15T04:15:23.832Z,93644.81
2023-05-15T04:16:20.638Z,93653.00
2023-05-15T04:17:17.094Z,93650.75
2023-05-15T04:18:13.536Z,93653.84
2023-05-15T04:19:10.036Z,93654.78
2023-05-15T04:20:07.393Z,93655.06
2023-05-15T04:21:03.957Z,93660.91
2023-05-15T04:22:00.476Z,93661.72
2023-05-15T04:22:57.005Z,93665.53
2023-05-15T04:23:53.500Z,93662.19
2023-05-15T04:24:49.993Z,93656.28
2023-05-15T04:25:46.900Z,93670.19
2023-05-15T04:26:43.436Z,93666.94
2023-05-15T04:27:40.508Z,93663.66
2023-05-15T04:28:37.089Z,93664.50
2023-05-15T04:29:33.612Z,93663.25
2023-05-15T04:30:30.125Z,93662.19
2023-05-15T04:31:27.723Z,93654.69
2023-05-15T04:32:24.242Z,93656.81
2023-05-15T04:33:20.952Z,93651.72
2023-05-15T04:34:17.430Z,93650.22
2023-05-15T04:35:15.471Z,93652.91
2023-05-15T04:36:12.024Z,93642.59
2023-05-15T04:37:08.518Z,93640.50
2023-05-15T04:38:04.955Z,93643.56
2023-05-15T04:39:01.542Z,93641.63
2023-05-15T04:39:58.007Z,93640.63
2023-05-15T04:40:54.583Z,93629.16
2023-05-15T04:41:51.243Z,93626.88
2023-05-15T04:42:47.791Z,93631.72
2023-05-15T04:43:44.285Z,93623.72
2023-05-15T04:44:41.047Z,93632.72
2023-05-15T04:45:37.792Z,93628.63
2023-05-15T04:46:35.057Z,93640.56
2023-05-15T04:47:31.599Z,93641.34
2023-05-15T04:48:28.084Z,93642.72
2023-05-15T04:49:24.585Z,93645.06
2023-05-15T04:50:21.107Z,93641.63
2023-05-15T04:51:17.566Z,93638.94
2023-05-15T04:52:14.154Z,93633.50
2023-05-15T04:53:10.635Z,93627.59
2023-05-15T04:54:07.272Z,93624.75
2023-05-15T04:55:03.944Z,93628.88
2023-05-15T04:56:00.673Z,93616.47
2023-05-15T04:56:57.950Z,93621.47
2023-05-15T04:57:54.493Z,93620.53
2023-05-15T04:58:50.958Z,93629.94
2023-05-15T04:59:47.453Z,93644.69
2023-05-15T05:00:44.100Z,93639.16
2023-05-15T05:01:40.718Z,93646.44
2023-05-15T05:02:37.536Z,93650.41
2023-05-15T05:03:34.080Z,93647.00
2023-05-15T05:04:30.749Z,93652.34
2023-05-15T05:05:27.480Z,93657.50
2023-05-15T05:06:24.170Z,93659.47
2023-05-15T05:07:20.751Z,93653.19
2023-05-15T05:08:17.249Z,93648.84
2023-05-15T05:09:13.842Z,93645.91
2023-05-15T05:10:10.558Z,93652.38
2023-05-15T05:11:07.084Z,93650.63
2023-05-15T05:12:03.701Z,93652.66
2023-05-15T05:13:00.193Z,93648.88
2023-05-15T05:13:56.707Z,93656.72
2023-05-15T05:14:53.277Z,93651.75
2023-05-15T05:15:49.872Z,93649.91
2023-05-15T05:16:46.471Z,93654.44
2023-05-15T05:17:42.993Z,93640.22
2023-05-15T05:18:39.512Z,93643.81
2023-05-15T05:19:36.020Z,93623.78
2023-05-15T05:20:32.529Z,93621.44
2023-05-15T05:21:29.010Z,93621.44
2023-05-15T05:22:25.543Z,93621.53
2023-05-15T05:23:21.990Z,93618.28
2023-05-15T05:24:18.538Z,93633.75
2023-05-15T05:25:15.050Z,93632.22
2023-05-15T05:26:11.528Z,93620.56
2023-05-15T05:27:08.073Z,93626.16
2023-05-15T05:28:04.673Z,93630.94
2023-05-15T05:29:01.124Z,93631.00
2023-05-15T05:29:57.713Z,93638.31
2023-05-15T05:30:54.263Z,93636.00
2023-05-15T05:31:51.392Z,93633.22
2023-05-15T05:32:48.043Z,93639.09
2023-05-15T05:33:44.591Z,93634.59
2023-05-15T05:34:41.236Z,93641.69
2023-05-15T05:35:37.823Z,93633.13
2023-05-15T05:36:34.315Z,93637.47
2023-05-15T05:37:30.819Z,93640.34
2023-05-15T05:38:27.775Z,93635.97
2023-05-15T05:39:24.236Z,93627.41
2023-05-15T05:40:20.730Z,93630.66
2023-05-15T05:41:17.238Z,93625.81
2023-05-15T05:42:13.715Z,93621.22
2023-05-15T05:43:10.272Z,93624.81
2023-05-15T05:44:06.875Z,93619.94
2023-05-15T05:45:03.451Z,93615.84
2023-05-15T05:46:00.037Z,93617.16
2023-05-15T05:46:56.520Z,93637.66
2023-05-15T05:47:53.091Z,93623.03
2023-05-15T05:48:49.546Z,93616.84
2023-05-15T05:49:48.182Z,93619.72
2023-05-15T05:50:44.802Z,93627.16
2023-05-15T05:51:41.262Z,93629.94
2023-05-15T05:52:37.898Z,93629.03
2023-05-15T05:53:34.504Z,93633.00
2023-05-15T05:54:31.062Z,93633.56
2023-05-15T05:55:27.759Z,93626.31
2023-05-15T05:56:24.457Z,93634.69
2023-05-15T05:57:21.028Z,93641.00
2023-05-15T05:59:20.853Z,93646.91
2023-05-15T06:00:17.628Z,93646.41
2023-05-15T06:01:14.196Z,93644.03
2023-05-15T06:02:11.494Z,93636.44
2023-05-15T06:03:08.199Z,93637.09
2023-05-15T06:04:04.975Z,93634.03
2023-05-15T06:05:01.903Z,93635.13
2023-05-15T06:05:58.503Z,93640.22
2023-05-15T06:06:54.962Z,93633.31
2023-05-15T06:07:52.466Z,93626.44
2023-05-15T06:08:48.931Z,93643.56
2023-05-15T06:09:46.967Z,93638.56
2023-05-15T06:10:43.512Z,93638.94
2023-05-15T06:11:40.456Z,93636.81
2023-05-15T06:12:37.002Z,93647.13
2023-05-15T06:13:33.476Z,93638.97
2023-05-15T06:14:30.015Z,93644.66
2023-05-15T06:15:27.039Z,93639.50
2023-05-15T06:16:23.592Z,93638.69
2023-05-15T06:17:20.076Z,93637.31
2023-05-15T06:18:16.621Z,93636.19
2023-05-15T06:19:13.188Z,93631.00
2023-05-15T06:20:09.962Z,93629.66
2023-05-15T06:21:06.456Z,93631.63
2023-05-15T06:22:03.012Z,93629.31
2023-05-15T06:22:59.565Z,93624.28
2023-05-15T06:23:56.072Z,93621.50
2023-05-15T06:24:52.515Z,93617.69
2023-05-15T06:25:49.060Z,93627.75
2023-05-15T06:26:45.610Z,93614.09
2023-05-15T06:27:42.409Z,93624.31
2023-05-15T06:28:38.911Z,93624.72
2023-05-15T06:29:35.872Z,93636.56
2023-05-15T06:30:32.372Z,93632.84
2023-05-15T06:31:29.041Z,93641.84
2023-05-15T06:32:25.826Z,93647.91
2023-05-15T06:33:22.303Z,93644.06
2023-05-15T06:34:18.801Z,93649.66
2023-05-15T06:35:15.501Z,93646.03
2023-05-15T06:36:12.273Z,93647.44
2023-05-15T06:37:08.799Z,93643.97
2023-05-15T06:38:05.483Z,93643.56
2023-05-15T06:39:01.932Z,93642.88
2023-05-15T06:39:58.482Z,93649.75
2023-05-15T06:40:54.930Z,93648.97
2023-05-15T06:41:54.085Z,93652.06
2023-05-15T06:42:50.709Z,93653.38
2023-05-15T06:43:47.180Z,93647.69
2023-05-15T06:44:43.663Z,93652.09
2023-05-15T06:45:40.115Z,93656.75
2023-05-15T06:46:36.653Z,93659.31
2023-05-15T06:47:33.307Z,93649.59
2023-05-15T06:48:29.793Z,93651.34
2023-05-15T06:49:26.817Z,93647.69
2023-05-15T06:50:23.326Z,93652.53
2023-05-15T06:51:19.820Z,93649.47
2023-05-15T06:52:16.428Z,93649.28
2023-05-15T06:53:14.511Z,93648.41
2023-05-15T06:54:11.201Z,93665.56
2023-05-15T06:55:08.046Z,93660.31
2023-05-15T06:56:04.735Z,93657.31
2023-05-15T06:57:01.201Z,93659.47
2023-05-15T06:57:57.731Z,93663.00
2023-05-15T06:58:54.422Z,93672.84
2023-05-15T06:59:50.898Z,93664.38
2023-05-15T07:00:48.577Z,93662.69
2023-05-15T07:01:45.393Z,93662.66
2023-05-15T07:02:41.958Z,93661.97
2023-05-15T07:03:38.535Z,93663.00
2023-05-15T07:04:35.174Z,93658.66
2023-05-15T07:05:31.646Z,93658.84
2023-05-15T07:06:28.419Z,93660.34
2023-05-15T07:07:24.884Z,93656.38
2023-05-15T07:08:21.455Z,93664.75
2023-05-15T07:09:18.007Z,93648.63
2023-05-15T07:10:14.468Z,93658.66
2023-05-15T07:11:10.967Z,93649.47
2023-05-15T07:12:07.643Z,93649.41
2023-05-15T07:13:04.156Z,93647.88
2023-05-15T07:14:00.669Z,93646.69
2023-05-15T07:14:57.199Z,93656.53
2023-05-15T07:15:53.653Z,93645.34
2023-05-15T07:16:50.138Z,93647.91
2023-05-15T07:17:46.675Z,93647.97
2023-05-15T07:18:43.453Z,93647.41
2023-05-15T07:19:39.950Z,93657.16
2023-05-15T07:20:36.586Z,93655.19
2023-05-15T07:21:33.250Z,93653.50
2023-05-15T07:22:29.717Z,93646.75
2023-05-15T07:23:26.529Z,93656.44
2023-05-15T07:24:25.509Z,93661.13
2023-05-15T07:25:22.329Z,93672.22
2023-05-15T07:26:31.081Z,93668.84
2023-05-15T07:27:31.136Z,93674.72
2023-05-15T07:28:27.670Z,93678.56
2023-05-15T07:29:24.390Z,93664.56
2023-05-15T07:30:20.983Z,93664.44
2023-05-15T07:31:17.538Z,93665.53
2023-05-15T07:32:14.016Z,93665.34
2023-05-15T07:33:10.935Z,93674.59
2023-05-15T07:34:07.407Z,93666.81
2023-05-15T07:35:05.040Z,93663.41
2023-05-15T07:36:01.479Z,93663.72
2023-05-15T07:36:57.979Z,93662.81
2023-05-15T07:37:54.562Z,93665.34
2023-05-15T07:38:51.083Z,93660.22
2023-05-15T07:39:47.629Z,93667.97
2023-05-15T07:40:44.135Z,93658.38
2023-05-15T07:41:40.639Z,93654.28
2023-05-15T07:42:37.114Z,93673.34
2023-05-15T07:43:33.733Z,93654.97
2023-05-15T07:44:30.206Z,93663.22
2023-05-15T07:45:27.157Z,93668.78
2023-05-15T07:46:24.045Z,93668.13
2023-05-15T07:47:20.728Z,93668.94
2023-05-15T07:48:17.773Z,93672.81
2023-05-15T07:49:14.298Z,93674.84
2023-05-15T07:50:10.959Z,93677.94
2023-05-15T07:51:07.465Z,93673.81
2023-05-15T07:52:04.009Z,93663.75
2023-05-15T07:53:00.489Z,93674.41
2023-05-15T07:53:57.011Z,93668.09
2023-05-15T07:54:53.466Z,93657.19
2023-05-15T07:55:50.120Z,93654.94
2023-05-15T07:56:46.588Z,93662.91
2023-05-15T07:57:43.062Z,93658.94
2023-05-15T07:58:40.351Z,93666.66
2023-05-15T07:59:36.982Z,93670.13
2023-05-15T08:00:33.714Z,93670.38
2023-05-15T08:01:31.408Z,93669.84
2023-05-15T08:02:29.295Z,93671.59
2023-05-15T08:03:26.094Z,93686.59
2023-05-15T08:04:22.748Z,93696.31
2023-05-15T08:05:19.208Z,93692.69
2023-05-15T08:06:16.299Z,93687.03
2023-05-15T08:07:13.555Z,93683.13
2023-05-15T08:08:10.045Z,93686.81
2023-05-15T08:09:06.563Z,93689.19
2023-05-15T08:10:06.131Z,93687.81
2023-05-15T08:11:02.859Z,93697.19
2023-05-15T08:12:15.234Z,93695.56
2023-05-15T08:13:11.700Z,93703.56
2023-05-15T08:14:08.217Z,93699.72
2023-05-15T08:15:05.013Z,93705.13
2023-05-15T08:16:01.640Z,93695.19
2023-05-15T08:16:58.186Z,93697.22
2023-05-15T08:17:54.814Z,93695.00
2023-05-15T08:18:53.646Z,93687.75
2023-05-15T08:19:50.420Z,93678.38
2023-05-15T08:20:47.723Z,93650.44
2023-05-15T08:21:44.331Z,93674.00
2023-05-15T08:22:40.942Z,93675.75
2023-05-15T08:23:37.392Z,93679.78
2023-05-15T08:24:34.155Z,93683.41
2023-05-15T08:25:30.740Z,93687.25
2023-05-15T08:26:27.198Z,93694.31
2023-05-15T08:27:23.691Z,93692.00
2023-05-15T08:28:20.168Z,93691.84
2023-05-15T08:29:17.037Z,93691.06
2023-05-15T08:30:13.818Z,93687.25
2023-05-15T08:31:10.295Z,93697.25
2023-05-15T08:32:07.767Z,93691.63
2023-05-15T08:33:04.451Z,93691.97
2023-05-15T08:34:00.992Z,93681.16
2023-05-15T08:34:58.162Z,93681.06
2023-05-15T08:35:54.742Z,93677.03
2023-05-15T08:36:52.386Z,93675.72
2023-05-15T08:37:48.842Z,93675.69
2023-05-15T08:38:45.483Z,93677.41
2023-05-15T08:39:41.990Z,93675.59
2023-05-15T08:40:40.145Z,93679.66
2023-05-15T08:41:47.780Z,93670.25
2023-05-15T08:42:45.830Z,93674.97
2023-05-15T08:43:42.903Z,93665.31
2023-05-15T08:44:40.419Z,93667.84
2023-05-15T08:45:37.017Z,93668.25
2023-05-15T08:46:34.959Z,93675.13
2023-05-15T08:47:34.709Z,93674.47
2023-05-15T08:48:32.466Z,93674.19
2023-05-15T08:49:47.191Z,93667.84
2023-05-15T08:50:44.301Z,93666.44
2023-05-15T08:51:40.988Z,93668.28
2023-05-15T08:52:38.265Z,93668.47
2023-05-15T08:53:34.811Z,93661.34
2023-05-15T08:54:31.523Z,93654.81
2023-05-15T08:55:29.016Z,93656.19
2023-05-15T08:56:25.875Z,93655.19
2023-05-15T08:57:22.631Z,93653.19
2023-05-15T08:58:21.476Z,93656.97
2023-05-15T08:59:18.366Z,93650.19
2023-05-15T09:00:15.196Z,93654.16
2023-05-15T09:01:13.183Z,93657.00
2023-05-15T09:02:09.774Z,93652.88
2023-05-15T09:03:06.870Z,93656.59
2023-05-15T09:04:04.058Z,93657.56
2023-05-15T09:05:00.772Z,93647.97
2023-05-15T09:05:58.542Z,93649.75
2023-05-15T09:06:55.565Z,93652.69
2023-05-15T09:07:54.216Z,93654.00
2023-05-15T09:08:52.633Z,93650.09
2023-05-15T09:09:49.685Z,93648.72
2023-05-15T09:10:46.546Z,93641.41
2023-05-15T09:11:44.369Z,93645.72
2023-05-15T09:12:43.206Z,93646.94
2023-05-15T09:13:39.761Z,93640.50
2023-05-15T09:14:36.238Z,93650.63
2023-05-15T09:15:32.869Z,93649.28
2023-05-15T09:16:29.435Z,93644.56
2023-05-15T09:17:25.925Z,93633.47
2023-05-15T09:18:22.742Z,93631.56
2023-05-15T09:19:21.258Z,93625.63
2023-05-15T09:20:28.443Z,93625.63
2023-05-15T09:21:29.179Z,93631.72
2023-05-15T09:22:26.086Z,93643.59
2023-05-15T09:23:26.574Z,93642.94
2023-05-15T09:24:24.952Z,93636.88
2023-05-15T09:25:38.347Z,93643.03
2023-05-15T09:26:34.956Z,93639.81
2023-05-15T09:27:40.686Z,93639.38
2023-05-15T09:28:37.177Z,93631.94
2023-05-15T09:29:34.760Z,93546.88
2023-05-15T09:30:31.302Z,93630.72
2023-05-15T09:31:27.841Z,93618.72
2023-05-15T09:32:27.252Z,93624.88
2023-05-15T09:33:27.573Z,93623.78
2023-05-15T09:34:31.379Z,93621.97
2023-05-15T09:35:28.816Z,93620.06
2023-05-15T09:36:25.520Z,93628.34
2023-05-15T09:37:30.043Z,93621.03
2023-05-15T09:38:26.561Z,93621.84
2023-05-15T09:39:28.876Z,93617.31
2023-05-15T09:40:28.224Z,93617.31
2023-05-15T09:41:26.130Z,93614.94
2023-05-15T09:42:24.592Z,93607.06
2023-05-15T09:43:21.096Z,93605.53
2023-05-15T09:44:21.721Z,93604.41
2023-05-15T09:45:18.798Z,93605.59
2023-05-15T09:46:17.181Z,93606.31
2023-05-15T09:47:14.407Z,93609.28
2023-05-15T09:48:12.213Z,93614.09
2023-05-15T09:49:09.324Z,93614.50
2023-05-15T09:50:06.175Z,93614.09
2023-05-15T09:51:02.986Z,93611.53
2023-05-15T09:51:59.894Z,93618.78
2023-05-15T09:52:58.838Z,93611.13
2023-05-15T09:53:55.429Z,93606.59
2023-05-15T09:54:52.025Z,93602.38
2023-05-15T09:55:49.377Z,93598.19
2023-05-15T09:56:46.919Z,93593.59
2023-05-15T09:57:43.377Z,93590.50
2023-05-15T09:58:51.676Z,93587.78
2023-05-15T09:59:48.735Z,93579.38
2023-05-15T10:00:47.531Z,93574.75
2023-05-15T10:01:46.369Z,93565.16
2023-05-15T10:02:43.074Z,93561.25
2023-05-15T10:03:42.326Z,93568.50
2023-05-15T10:04:38.813Z,93556.50
2023-05-15T10:06:43.178Z,93556.00
2023-05-15T10:07:40.288Z,93553.44
2023-05-15T10:08:37.367Z,93562.28
2023-05-15T10:09:33.912Z,93565.06
2023-05-15T10:10:30.848Z,93566.91
2023-05-15T10:11:27.474Z,93572.56
2023-05-15T10:12:24.270Z,93576.81
2023-05-15T10:13:21.162Z,93569.59
2023-05-15T10:14:18.784Z,93566.47
2023-05-15T10:15:15.739Z,93568.81
2023-05-15T10:16:13.750Z,93578.91
2023-05-15T10:17:10.490Z,93571.53
2023-05-15T10:18:07.849Z,93570.25
2023-05-15T10:19:05.528Z,93568.41
2023-05-15T10:20:02.365Z,93572.31
2023-05-15T10:21:01.372Z,93572.38
2023-05-15T10:21:59.642Z,93576.63
2023-05-15T10:22:56.677Z,93572.31
2023-05-15T10:23:54.843Z,93567.22
2023-05-15T10:25:02.768Z,93573.38
2023-05-15T10:26:03.256Z,93581.03
2023-05-15T10:26:59.831Z,93579.41
2023-05-15T10:27:57.143Z,93588.72
2023-05-15T10:28:54.996Z,93527.16
2023-05-15T10:29:51.633Z,93595.28
2023-05-15T10:30:48.343Z,93602.63
2023-05-15T10:31:44.907Z,93609.34
2023-05-15T10:32:42.268Z,93613.19
2023-05-15T10:33:39.089Z,93614.28
2023-05-15T10:34:35.766Z,93626.75
2023-05-15T10:35:33.123Z,93621.97
2023-05-15T10:36:29.900Z,93621.06
2023-05-15T10:37:27.999Z,93615.13
2023-05-15T10:38:26.113Z,93613.59
2023-05-15T10:39:24.450Z,93619.72
2023-05-15T10:40:21.503Z,93609.13
2023-05-15T10:41:18.283Z,93605.34
2023-05-15T10:42:15.152Z,93609.09
2023-05-15T10:43:13.399Z,93616.25
2023-05-15T10:44:10.020Z,93617.47
2023-05-15T10:45:08.920Z,93625.19
2023-05-15T10:46:05.878Z,93641.69
2023-05-15T10:47:03.478Z,93640.91
2023-05-15T10:48:01.402Z,93644.31
2023-05-15T10:48:58.867Z,93641.28
2023-05-15T10:49:55.531Z,93639.97
2023-05-15T10:50:52.299Z,93643.59
2023-05-15T10:51:49.526Z,93643.91
2023-05-15T10:52:45.995Z,93652.38
2023-05-15T10:53:43.079Z,93650.88
2023-05-15T10:54:39.631Z,93651.16
2023-05-15T10:55:36.751Z,93647.03
2023-05-15T10:56:33.677Z,93654.03
2023-05-15T10:57:30.324Z,93643.47
2023-05-15T10:58:26.864Z,93638.78
2023-05-15T10:59:30.683Z,93636.19
2023-05-15T11:00:28.999Z,93632.78
2023-05-15T11:01:27.578Z,93639.03
2023-05-15T11:02:25.999Z,93629.81
2023-05-15T11:03:48.792Z,93627.69
2023-05-15T11:04:46.715Z,93627.56
2023-05-15T11:06:01.963Z,93630.53
2023-05-15T11:07:11.535Z,93628.34
2023-05-15T11:08:19.490Z,93627.13
2023-05-15T11:09:27.490Z,93624.88
2023-05-15T11:10:27.618Z,93620.44
2023-05-15T11:11:54.742Z,93620.00
2023-05-15T11:12:58.459Z,93609.34
2023-05-15T11:14:08.089Z,93611.28
2023-05-15T11:15:04.525Z,93607.69
2023-05-15T11:16:01.045Z,93602.91
2023-05-15T11:16:58.110Z,93600.03
2023-05-15T11:18:07.657Z,93595.84
2023-05-15T11:19:23.526Z,93597.13
2023-05-15T11:20:20.193Z,93582.03